Time;durP1;ratioP1;P1;durP2;ratioP2;P2;SDS_P1;SDS_P2;PMS_P1;PMS_P2;Temp;Humidity;BMP_temperature;BMP_pressure;BME280_temperature;BME280_humidity;BME280_pressure;Samples;Min_cycle;Max_cycle;Signal;HPM_P1;HPM_P2
2022/08/29 00:12:37;;;;;;;11.82;6.18;;;;;;;15.53;79.67;100293.41;30858132;28;97431;-59
2022/08/29 00:27:37;;;;;;;14.05;6.13;;;;;;;15.35;79.84;100306.53;30856532;28;97432;-59
2022/08/29 00:42:38;;;;;;;16.92;6.22;;;;;;;15.17;80.13;100307.91;30854433;28;96713;-60
2022/08/29 00:57:43;;;;;;;11.07;6.20;;;;;;;15.07;80.92;100321.66;30854307;28;96763;-59
2022/08/29 01:12:43;;;;;;;9.27;5.70;;;;;;;15.04;80.95;100315.88;30853408;28;96668;-59
2022/08/29 01:27:51;;;;;;;10.93;6.10;;;;;;;15.06;81.15;100321.84;30852728;28;96633;-59
2022/08/29 01:42:51;;;;;;;13.27;5.77;;;;;;;14.97;80.87;100328.41;30851085;28;97354;-59
2022/08/29 01:57:51;;;;;;;10.38;5.13;;;;;;;15.02;81.43;100331.31;30864187;28;96834;-59
2022/08/29 02:12:52;;;;;;;8.95;4.97;;;;;;;15.39;81.30;100322.06;30869389;28;97263;-59
2022/08/29 02:27:54;;;;;;;9.77;5.60;;;;;;;15.20;80.53;100328.97;30867882;28;96946;-59
2022/08/29 02:42:54;;;;;;;10.07;5.53;;;;;;;14.99;81.03;100337.91;30864254;28;97778;-59
2022/08/29 02:57:57;;;;;;;9.03;5.73;;;;;;;15.35;81.40;100346.78;30863165;28;97245;-59
2022/08/29 03:12:58;;;;;;;10.43;4.90;;;;;;;15.54;80.74;100346.09;30862240;28;97691;-59
2022/08/29 03:27:58;;;;;;;11.98;6.13;;;;;;;15.30;80.30;100351.94;30860086;28;97446;-59
2022/08/29 03:42:59;;;;;;;12.13;6.07;;;;;;;14.88;80.16;100358.06;30857536;28;96789;-59
2022/08/29 03:57:59;;;;;;;14.25;5.95;;;;;;;14.66;80.87;100359.94;30856643;28;96723;-59
2022/08/29 04:13:00;;;;;;;11.43;6.65;;;;;;;14.56;81.02;100359.41;30854407;28;96762;-59
2022/08/29 04:28:01;;;;;;;14.15;5.90;;;;;;;14.63;81.14;100370.22;30853122;28;96702;-60
2022/08/29 04:43:01;;;;;;;9.60;6.10;;;;;;;14.77;81.15;100390.75;30851153;28;97293;-60
2022/08/29 04:58:02;;;;;;;14.07;6.35;;;;;;;15.05;81.05;100404.19;30964392;28;97490;-59
2022/08/29 05:13:02;;;;;;;9.13;5.30;;;;;;;15.53;80.66;100422.28;30971638;28;96612;-59
2022/08/29 05:28:04;;;;;;;14.23;4.22;;;;;;;16.17;80.11;100428.41;30975534;28;97610;-59
2022/08/29 05:43:06;;;;;;;9.47;4.57;;;;;;;16.74;78.75;100436.19;30992532;28;96804;-59
2022/08/29 05:58:07;;;;;;;8.80;3.97;;;;;;;17.44;77.75;100438.50;30990160;28;97382;-59
2022/08/29 06:13:07;;;;;;;11.75;4.10;;;;;;;18.00;75.52;100453.34;30989685;28;97392;-59
2022/08/29 06:28:08;;;;;;;7.65;3.05;;;;;;;18.79;73.43;100469.31;30987363;28;97483;-60
2022/08/29 06:43:08;;;;;;;6.25;2.75;;;;;;;19.57;71.02;100494.28;30986127;28;104018;-60
2022/08/29 06:58:09;;;;;;;8.80;2.45;;;;;;;20.51;67.93;100510.31;30983290;28;96728;-59
2022/08/29 07:13:09;;;;;;;9.07;3.40;;;;;;;21.06;64.64;100516.66;30966935;28;96791;-60
2022/08/29 07:28:09;;;;;;;7.90;3.07;;;;;;;22.23;61.26;100520.44;30981490;28;96761;-60
2022/08/29 07:43:10;;;;;;;6.67;2.67;;;;;;;22.37;55.67;100523.75;30973231;28;96881;-60
2022/08/29 07:58:10;;;;;;;7.68;2.63;;;;;;;23.05;54.58;100517.69;30910547;28;96860;-61
2022/08/29 08:13:11;;;;;;;;;;;;;;;23.74;51.13;100533.75;30871117;28;97015;-60
2022/08/29 08:28:13;;;;;;;6.85;2.60;;;;;;;24.60;46.62;100529.69;30855879;28;96819;-59
2022/08/29 08:43:18;;;;;;;6.40;3.10;;;;;;;25.09;43.84;100552.56;30850473;28;97507;-59
2022/08/29 08:58:33;;;;;;;6.60;2.60;;;;;;;26.87;40.54;100544.06;30853440;28;96734;-60
2022/08/29 09:13:55;;;;;;;8.37;3.30;;;;;;;30.68;34.94;100548.13;30915794;28;97721;-60
2022/08/29 09:28:57;;;;;;;5.40;2.57;;;;;;;42.44;19.35;100545.06;30983205;28;97653;-60
2022/08/29 09:43:58;;;;;;;8.83;2.80;;;;;;;45.32;15.42;100540.78;30990917;28;97675;-64
2022/08/29 09:59:19;;;;;;;7.20;2.75;;;;;;;43.06;14.65;100536.25;30988920;28;97858;-59
2022/08/29 10:14:53;;;;;;;5.60;2.10;;;;;;;44.83;13.42;100534.66;30940146;28;97040;-61
2022/08/29 10:29:59;;;;;;;6.67;2.20;;;;;;;45.49;13.70;100527.16;30977921;28;97658;-60
2022/08/29 10:45:13;;;;;;;6.53;2.67;;;;;;;48.00;11.86;100532.69;30984324;28;96688;-59
2022/08/29 11:00:23;;;;;;;4.50;2.10;;;;;;;45.49;13.10;100521.53;30984572;28;96647;-62
2022/08/29 11:15:30;;;;;;;7.23;2.60;;;;;;;43.01;15.11;100505.75;30938568;28;97305;-63
2022/08/29 11:30:54;;;;;;;8.80;2.43;;;;;;;36.13;20.19;100506.03;30929216;28;97188;-59
2022/08/29 11:46:03;;;;;;;7.77;2.17;;;;;;;33.99;22.73;100507.00;30927446;28;97557;-58
2022/08/29 12:01:05;;;;;;;5.10;2.40;;;;;;;32.38;25.04;100497.50;30977985;28;96738;-62
2022/08/29 12:16:08;;;;;;;7.83;2.33;;;;;;;31.22;27.00;100490.09;30953968;28;96899;-61
2022/08/29 12:31:17;;;;;;;4.67;1.90;;;;;;;30.28;28.12;100489.84;30853209;28;96795;-63
2022/08/29 12:46:23;;;;;;;8.63;2.63;;;;;;;29.27;30.33;100479.75;30841048;28;97035;-59
2022/08/29 13:01:23;;;;;;;7.53;1.90;;;;;;;28.94;30.48;100466.53;30839699;28;97119;-62
2022/08/29 13:16:28;;;;;;;6.50;2.10;;;;;;;28.19;31.05;100456.59;30911316;28;97697;-62
2022/08/29 13:31:35;;;;;;;5.07;1.70;;;;;;;27.84;31.64;100444.69;30890879;28;97147;-63
2022/08/29 13:46:36;;;;;;;7.30;2.00;;;;;;;27.76;31.98;100426.94;30971644;28;97514;-64
2022/08/29 14:01:37;;;;;;;5.88;1.83;;;;;;;27.03;32.83;100420.78;30973011;28;97034;-61
2022/08/29 14:16:37;;;;;;;8.00;2.20;;;;;;;26.68;34.35;100414.22;30986820;28;98524;-62
2022/08/29 14:31:38;;;;;;;7.07;2.20;;;;;;;25.97;34.62;100414.84;30961327;28;97152;-61
2022/08/29 14:46:38;;;;;;;6.63;2.30;;;;;;;25.29;35.84;100416.41;30921532;28;97942;-62
2022/08/29 15:01:38;;;;;;;5.32;2.10;;;;;;;24.99;36.56;100417.84;30985392;28;96791;-61
2022/08/29 15:16:39;;;;;;;5.15;2.25;;;;;;;24.42;37.18;100404.78;30980375;28;96901;-60
2022/08/29 15:31:39;;;;;;;6.43;2.88;;;;;;;23.98;37.85;100413.84;30957430;28;96872;-61
2022/08/29 15:46:39;;;;;;;6.00;2.67;;;;;;;23.47;38.93;100392.25;30979473;28;100888;-61
2022/08/29 16:01:45;;;;;;;8.80;2.67;;;;;;;23.18;40.71;100389.66;30975145;28;97090;-61
2022/08/29 16:16:46;;;;;;;6.43;2.30;;;;;;;22.89;41.14;100391.63;30966440;28;97090;-59
2022/08/29 16:31:46;;;;;;;;;;;;;;;22.63;41.51;100396.63;30856792;28;96690;-60
2022/08/29 16:46:47;;;;;;;5.60;2.43;;;;;;;22.35;41.99;100392.06;30846634;28;96758;-60
2022/08/29 17:01:50;;;;;;;7.35;2.13;;;;;;;21.98;42.70;100394.06;30848555;28;97166;-60
2022/08/29 17:16:52;;;;;;;7.17;2.37;;;;;;;21.51;43.98;100396.84;30849196;28;96734;-60
2022/08/29 17:31:52;;;;;;;5.93;2.40;;;;;;;21.12;45.19;100415.50;30866880;28;98077;-60
2022/08/29 17:46:53;;;;;;;4.43;2.10;;;;;;;20.73;46.56;100420.50;30867677;28;96780;-59
2022/08/29 18:01:54;;;;;;;6.27;2.30;;;;;;;20.38;47.97;100430.16;30866702;28;97217;-59
2022/08/29 18:16:54;;;;;;;;;;;;;;;20.09;49.04;100442.59;30864190;28;97014;-59
2022/08/29 18:31:54;;;;;;;5.80;2.55;;;;;;;19.87;50.14;100459.25;30864374;28;96755;-60
2022/08/29 18:46:55;;;;;;;8.13;2.45;;;;;;;19.69;51.05;100470.88;30861802;28;96876;-59
2022/08/29 19:01:55;;;;;;;8.55;3.50;;;;;;;19.85;52.38;100480.31;30861008;28;97310;-58
2022/08/29 19:17:01;;;;;;;7.25;3.05;;;;;;;20.53;51.88;100489.28;30948971;28;97027;-60
2022/08/29 19:32:02;;;;;;;7.47;3.40;;;;;;;20.68;51.40;100506.97;30922067;28;96852;-59
2022/08/29 19:47:03;;;;;;;9.73;3.20;;;;;;;20.32;52.08;100514.09;30913625;28;97294;-59
2022/08/29 20:02:04;;;;;;;7.47;3.20;;;;;;;19.72;53.24;100515.53;30896160;28;96776;-60
2022/08/29 20:17:06;;;;;;;8.98;3.33;;;;;;;19.39;54.26;100522.88;30849355;28;97680;-59
2022/08/29 20:32:06;;;;;;;7.77;3.30;;;;;;;18.91;55.67;100537.78;30966192;28;97328;-58
2022/08/29 20:47:10;;;;;;;11.63;4.13;;;;;;;18.42;56.50;100553.53;30969180;28;98355;-59
2022/08/29 21:02:10;;;;;;;14.37;4.97;;;;;;;18.23;58.33;100552.59;31001877;28;97193;-59
2022/08/29 21:17:12;;;;;;;9.90;3.67;;;;;;;17.87;58.80;100550.34;31014996;28;96807;-59
2022/08/29 21:32:12;;;;;;;12.23;4.07;;;;;;;17.32;60.37;100564.88;31015143;28;96784;-59
2022/08/29 21:47:12;;;;;;;13.02;4.95;;;;;;;16.98;61.87;100566.69;31013343;28;97994;-59
2022/08/29 22:02:13;;;;;;;10.25;4.05;;;;;;;16.79;63.18;100560.19;31013938;28;96982;-59
2022/08/29 22:17:14;;;;;;;10.07;4.63;;;;;;;16.66;63.81;100565.50;30992845;28;97277;-59
2022/08/29 22:32:15;;;;;;;11.50;4.63;;;;;;;16.18;64.60;100574.38;30990525;28;96771;-59
2022/08/29 22:47:17;;;;;;;10.93;4.10;;;;;;;15.83;66.38;100559.06;30989080;28;96913;-60
2022/08/29 23:02:19;;;;;;;7.33;4.03;;;;;;;15.75;67.40;100569.94;30988279;28;97482;-60
2022/08/29 23:17:19;;;;;;;;;;;;;;;15.66;68.15;100565.72;30987309;28;97444;-60
2022/08/29 23:32:20;;;;;;;7.47;4.63;;;;;;;15.50;68.77;100556.94;30986731;28;96763;-60
2022/08/29 23:47:20;;;;;;;9.32;4.70;;;;;;;15.39;69.67;100554.75;30983352;28;97630;-60
